Time;durP1;ratioP1;P1;durP2;ratioP2;P2;SDS_P1;SDS_P2;PMS_P1;PMS_P2;Temp;Humidity;BMP_temperature;BMP_pressure;BME280_temperature;BME280_humidity;BME280_pressure;Samples;Min_cycle;Max_cycle;Signal;HPM_P1;HPM_P2
2023/12/06 00:00:29;;;;;;;45.35;19.13;;;;;;;-2.63;58.97;100887.31;5010733;28;20692;-66
2023/12/06 00:02:54;;;;;;;40.72;17.23;;;;;;;-2.58;59.01;100886.53;5005436;28;20874;-65
2023/12/06 00:05:20;;;;;;;48.45;20.75;;;;;;;-2.64;58.90;100880.47;5009576;28;20052;-66
2023/12/06 00:07:45;;;;;;;42.47;19.40;;;;;;;-2.55;58.56;100878.91;5005544;28;20022;-66
2023/12/06 00:10:11;;;;;;;42.30;18.95;;;;;;;-2.53;58.80;100885.75;5012621;28;20091;-66
2023/12/06 00:12:36;;;;;;;49.50;20.63;;;;;;;-2.59;58.76;100884.81;5006248;28;20025;-66
2023/12/06 00:15:02;;;;;;;45.83;20.38;;;;;;;-2.45;58.80;100881.63;5010260;28;20124;-66
2023/12/06 00:17:28;;;;;;;39.97;19.17;;;;;;;-2.45;58.74;100885.84;5009789;28;20041;-66
2023/12/06 00:19:53;;;;;;;46.83;19.27;;;;;;;-2.53;58.76;100893.44;5006074;28;20033;-67
2023/12/06 00:22:19;;;;;;;48.25;21.23;;;;;;;-2.51;58.75;100890.91;4992501;28;20477;-68
2023/12/06 00:24:44;;;;;;;41.20;19.58;;;;;;;-2.49;58.68;100889.22;5004348;28;20128;-69
2023/12/06 00:27:09;;;;;;;43.63;19.70;;;;;;;-2.41;58.58;100897.88;5010880;28;20824;-66
2023/12/06 00:29:35;;;;;;;42.65;20.08;;;;;;;-2.48;58.66;100891.78;5006091;28;20041;-66
2023/12/06 00:32:00;;;;;;;44.42;20.38;;;;;;;-2.54;58.89;100888.28;4989890;28;20039;-66
2023/12/06 00:34:26;;;;;;;42.53;20.50;;;;;;;-2.49;58.86;100899.44;5006982;28;20045;-66
2023/12/06 00:36:51;;;;;;;42.15;18.80;;;;;;;-2.48;58.57;100896.06;5006973;28;20044;-67
2023/12/06 00:39:17;;;;;;;49.78;20.50;;;;;;;-2.55;58.74;100895.13;4967354;28;20038;-67
2023/12/06 00:41:42;;;;;;;43.75;18.67;;;;;;;-2.69;59.13;100891.50;5004332;28;20069;-68
2023/12/06 00:44:08;;;;;;;46.85;20.17;;;;;;;-2.76;59.80;100893.09;5010806;28;20477;-67
2023/12/06 00:46:36;;;;;;;41.17;18.42;;;;;;;-2.58;58.62;100894.19;5006625;28;20033;-67
2023/12/06 00:49:03;;;;;;;54.97;20.65;;;;;;;-2.52;58.73;100899.41;4988425;28;20033;-67
2023/12/06 00:51:28;;;;;;;47.25;21.58;;;;;;;-2.53;58.59;100902.81;5008324;28;20095;-67
2023/12/06 00:53:54;;;;;;;40.55;19.70;;;;;;;-2.70;59.65;100900.00;4991836;28;20050;-68
2023/12/06 00:56:19;;;;;;;46.20;18.98;;;;;;;-2.73;59.55;100910.19;4959997;28;20036;-67
2023/12/06 00:58:45;;;;;;;45.70;20.02;;;;;;;-2.54;59.16;100907.06;4990570;28;20037;-67
2023/12/06 01:01:12;;;;;;;42.45;19.30;;;;;;;-2.56;59.16;100903.63;5009705;28;20061;-67
2023/12/06 01:03:39;;;;;;;47.63;20.63;;;;;;;-2.54;58.90;100901.09;4978186;28;20728;-67
2023/12/06 01:06:05;;;;;;;46.28;19.65;;;;;;;-2.46;59.30;100902.06;5007391;28;20032;-68
2023/12/06 01:08:30;;;;;;;43.63;19.83;;;;;;;-2.53;59.39;100905.38;4980752;28;20041;-67
2023/12/06 01:10:56;;;;;;;48.55;19.42;;;;;;;-2.47;58.99;100906.34;4996935;28;20116;-67
2023/12/06 01:13:21;;;;;;;48.67;19.38;;;;;;;-2.52;59.05;100909.66;5005079;28;20086;-67
2023/12/06 01:15:47;;;;;;;49.65;20.60;;;;;;;-2.49;58.79;100904.56;5005060;28;20689;-67
2023/12/06 01:18:13;;;;;;;48.35;20.33;;;;;;;-2.70;59.48;100908.53;4986829;28;20044;-67
2023/12/06 01:20:39;;;;;;;45.70;19.00;;;;;;;-2.58;59.27;100914.66;5007948;28;20415;-67
2023/12/06 01:23:07;;;;;;;55.90;19.67;;;;;;;-2.69;59.90;100917.94;5003063;28;20034;-66
2023/12/06 01:25:33;;;;;;;42.85;18.92;;;;;;;-2.53;59.25;100911.34;5008149;28;20057;-67
2023/12/06 01:27:59;;;;;;;47.55;20.77;;;;;;;-2.48;58.83;100921.66;4980974;28;20086;-67
2023/12/06 01:30:24;;;;;;;44.72;19.65;;;;;;;-2.58;59.23;100914.66;4992220;28;20081;-68
2023/12/06 01:32:50;;;;;;;43.33;22.10;;;;;;;-2.69;59.55;100923.06;5020006;28;20025;-69
2023/12/06 01:35:15;;;;;;;44.53;18.85;;;;;;;-2.55;59.22;100919.84;5008381;28;20607;-68
2023/12/06 01:37:41;;;;;;;43.53;20.88;;;;;;;-2.61;59.53;100922.31;5004188;28;20092;-68
2023/12/06 01:40:08;;;;;;;42.58;18.50;;;;;;;-2.47;59.33;100929.38;5006593;28;20028;-67
2023/12/06 01:42:34;;;;;;;45.85;19.55;;;;;;;-2.66;59.72;100923.09;5007872;28;20037;-66
2023/12/06 01:45:00;;;;;;;48.63;21.83;;;;;;;-2.45;59.09;100924.25;5003058;28;20038;-69
2023/12/06 01:47:27;;;;;;;47.88;20.77;;;;;;;-2.54;59.28;100927.53;5009077;28;20555;-69
2023/12/06 01:49:54;;;;;;;38.65;19.75;;;;;;;-2.54;59.54;100931.78;5003856;28;20042;-70
2023/12/06 01:52:21;;;;;;;42.25;18.80;;;;;;;-2.47;59.33;100936.16;5008779;28;20034;-70
2023/12/06 01:54:47;;;;;;;40.00;18.85;;;;;;;-2.51;59.25;100935.28;5002297;28;20033;-68
2023/12/06 01:57:13;;;;;;;44.45;21.02;;;;;;;-2.48;58.84;100932.75;5008231;28;20025;-69
2023/12/06 01:59:39;;;;;;;46.75;19.60;;;;;;;-2.47;59.37;100924.25;5007797;28;20569;-66
2023/12/06 02:02:05;;;;;;;43.42;19.88;;;;;;;-2.58;59.30;100940.25;5003507;28;20060;-67
2023/12/06 02:04:33;;;;;;;39.75;17.25;;;;;;;-2.57;59.33;100936.88;5006655;28;20041;-67
2023/12/06 02:06:59;;;;;;;44.97;19.48;;;;;;;-2.43;59.15;100936.22;5002903;28;20527;-67
2023/12/06 02:09:27;;;;;;;42.35;18.35;;;;;;;-2.44;59.28;100937.09;5009615;28;20167;-68
2023/12/06 02:11:53;;;;;;;48.40;18.27;;;;;;;-2.44;59.63;100931.09;5004744;28;20064;-68
2023/12/06 02:14:19;;;;;;;38.58;18.33;;;;;;;-2.71;60.08;100932.41;5009567;28;20029;-68
2023/12/06 02:16:44;;;;;;;42.67;19.25;;;;;;;-2.53;59.36;100933.53;5002067;28;20064;-67
2023/12/06 02:19:20;;;;;;;37.60;17.45;;;;;;;-2.49;59.38;100931.03;5008078;28;20212;-67
2023/12/06 02:21:46;;;;;;;36.53;17.35;;;;;;;-2.46;59.39;100930.22;4995083;28;21979;-69
2023/12/06 02:24:13;;;;;;;41.63;17.17;;;;;;;-2.45;59.21;100937.94;5009010;28;20601;-67
2023/12/06 02:26:38;;;;;;;36.47;17.13;;;;;;;-2.47;59.14;100938.72;5005415;28;20072;-67
2023/12/06 02:29:05;;;;;;;32.08;16.48;;;;;;;-2.42;58.91;100937.13;5004768;28;20484;-67
2023/12/06 02:31:30;;;;;;;38.80;17.92;;;;;;;-2.31;59.12;100944.91;5008308;28;20138;-67
2023/12/06 02:33:59;;;;;;;33.38;15.30;;;;;;;-2.55;59.31;100948.00;5002190;28;20034;-66
2023/12/06 02:36:27;;;;;;;36.55;16.05;;;;;;;-2.48;59.21;100945.53;5008819;28;20463;-66
2023/12/06 02:38:53;;;;;;;35.08;17.42;;;;;;;-2.43;59.40;100945.63;5000790;28;20536;-66
2023/12/06 02:41:19;;;;;;;43.70;18.48;;;;;;;-2.37;58.88;100948.28;5007532;28;20032;-67
2023/12/06 02:43:45;;;;;;;37.63;17.15;;;;;;;-2.36;58.61;100941.44;5003507;28;20690;-68
2023/12/06 02:46:12;;;;;;;34.65;16.83;;;;;;;-2.42;59.29;100952.47;5006796;28;20033;-68
2023/12/06 02:48:37;;;;;;;35.13;14.70;;;;;;;-2.56;59.51;100948.81;5004746;28;20061;-68
2023/12/06 02:51:03;;;;;;;28.60;15.43;;;;;;;-2.43;58.95;100945.63;5005364;28;20627;-68
2023/12/06 02:53:28;;;;;;;34.50;16.35;;;;;;;-2.37;59.07;100949.97;5006287;28;20096;-68
2023/12/06 02:55:54;;;;;;;38.38;16.95;;;;;;;-2.40;59.15;100950.78;5002023;28;20029;-68
2023/12/06 02:58:19;;;;;;;35.15;13.82;;;;;;;-2.45;59.11;100952.41;5009061;28;20045;-68
2023/12/06 03:00:46;;;;;;;32.35;16.83;;;;;;;-2.35;59.21;100943.19;5010623;28;20847;-68
2023/12/06 03:03:11;;;;;;;33.25;14.88;;;;;;;-2.21;58.78;100951.91;4991999;28;20124;-71
2023/12/06 03:05:37;;;;;;;35.38;16.48;;;;;;;-2.30;58.96;100951.78;4992907;28;20048;-68
2023/12/06 03:08:03;;;;;;;33.65;14.45;;;;;;;-2.16;58.45;100946.84;5008913;28;20041;-68
2023/12/06 03:10:28;;;;;;;34.25;15.02;;;;;;;-2.13;58.73;100957.16;5010654;28;20065;-68
2023/12/06 03:12:54;;;;;;;36.35;15.77;;;;;;;-2.14;58.39;100952.84;5006303;28;20026;-68
2023/12/06 03:15:19;;;;;;;30.83;14.88;;;;;;;-2.23;58.68;100959.56;5011093;28;20029;-67
2023/12/06 03:17:44;;;;;;;29.65;14.77;;;;;;;-2.23;58.56;100948.47;5009980;28;20044;-68
2023/12/06 03:20:10;;;;;;;31.02;14.75;;;;;;;-2.24;58.65;100952.72;5005758;28;20061;-67
2023/12/06 03:22:36;;;;;;;33.08;16.05;;;;;;;-2.29;58.75;100949.25;5010136;28;20044;-68
2023/12/06 03:25:02;;;;;;;36.53;14.80;;;;;;;-2.33;59.21;100955.16;5006723;28;20143;-67
2023/12/06 03:27:27;;;;;;;42.65;17.27;;;;;;;-2.40;59.24;100952.47;5010555;28;20666;-63
2023/12/06 03:29:53;;;;;;;35.05;15.95;;;;;;;-2.24;59.22;100950.16;5006326;28;20041;-65
2023/12/06 03:32:18;;;;;;;39.72;16.30;;;;;;;-2.20;58.70;100953.66;5009761;28;20487;-67
2023/12/06 03:34:44;;;;;;;29.63;14.45;;;;;;;-2.26;58.57;100949.28;5009786;28;20400;-64
2023/12/06 03:37:09;;;;;;;40.63;15.80;;;;;;;-2.30;58.86;100957.75;5006051;28;20153;-64
2023/12/06 03:39:35;;;;;;;32.50;15.98;;;;;;;-2.36;58.89;100957.66;5011119;28;20069;-65
2023/12/06 03:42:00;;;;;;;33.70;16.25;;;;;;;-2.29;59.06;100964.63;5007005;28;20032;-64
2023/12/06 03:44:26;;;;;;;34.72;16.10;;;;;;;-2.31;58.83;100965.41;5011417;28;20049;-65
2023/12/06 03:46:51;;;;;;;32.42;15.63;;;;;;;-2.26;58.85;100967.22;5004653;28;20029;-64
2023/12/06 03:49:17;;;;;;;33.92;17.25;;;;;;;-2.21;59.11;100965.56;5012833;28;20523;-64
2023/12/06 03:51:42;;;;;;;28.85;14.45;;;;;;;-2.17;58.84;100970.75;5007974;28;20041;-64
2023/12/06 03:54:08;;;;;;;35.40;15.20;;;;;;;-2.22;59.07;100971.53;5000205;28;20327;-65
2023/12/06 03:56:33;;;;;;;36.60;17.38;;;;;;;-2.19;58.89;100969.88;5005050;28;20738;-64
2023/12/06 03:58:59;;;;;;;30.92;14.63;;;;;;;-2.17;59.03;100963.06;5003447;28;20048;-65
2023/12/06 04:01:27;;;;;;;31.63;14.63;;;;;;;-2.06;58.81;100966.63;5009826;28;20025;-64
2023/12/06 04:03:52;;;;;;;37.60;16.48;;;;;;;-2.04;58.60;100965.81;5003004;28;20154;-64
2023/12/06 04:06:18;;;;;;;37.33;17.13;;;;;;;-2.05;58.16;100971.75;5010886;28;20124;-65
2023/12/06 04:08:43;;;;;;;36.28;17.02;;;;;;;-2.21;58.80;100973.25;5005738;28;20144;-65
2023/12/06 04:11:09;;;;;;;36.58;16.63;;;;;;;-2.14;58.54;100965.66;5006829;28;20087;-64
2023/12/06 04:13:34;;;;;;;34.15;15.15;;;;;;;-2.24;58.72;100973.22;5008297;28;20065;-65
2023/12/06 04:16:00;;;;;;;38.13;16.42;;;;;;;-2.22;58.90;100971.53;4993492;28;20029;-65
2023/12/06 04:18:25;;;;;;;32.13;16.58;;;;;;;-2.18;59.02;100976.69;5008369;28;20120;-65
2023/12/06 04:20:51;;;;;;;33.05;15.60;;;;;;;-2.09;59.06;100972.59;5008247;28;20128;-66
2023/12/06 04:23:17;;;;;;;35.00;16.15;;;;;;;-2.06;58.94;100969.19;5006857;28;20123;-64
2023/12/06 04:25:42;;;;;;;36.38;17.67;;;;;;;-2.14;58.60;100979.31;5008080;28;20037;-64
2023/12/06 04:28:08;;;;;;;31.00;15.32;;;;;;;-2.10;59.01;100978.53;5005215;28;20063;-65
2023/12/06 04:30:34;;;;;;;33.90;15.77;;;;;;;-2.10;58.93;100980.22;5009994;28;20033;-65
2023/12/06 04:33:00;;;;;;;36.30;15.95;;;;;;;-2.07;58.79;100980.25;5004144;28;20045;-64
2023/12/06 04:35:25;;;;;;;31.20;14.82;;;;;;;-2.04;58.71;100970.94;5009265;28;20120;-64
2023/12/06 04:37:51;;;;;;;32.60;15.30;;;;;;;-2.07;58.80;100976.03;5007247;28;20050;-65
2023/12/06 04:40:16;;;;;;;37.30;17.25;;;;;;;-2.06;58.51;100980.28;5005042;28;20037;-65
2023/12/06 04:42:42;;;;;;;36.95;15.77;;;;;;;-2.08;58.74;100984.53;5008832;28;20096;-64
2023/12/06 04:45:08;;;;;;;37.13;15.07;;;;;;;-2.09;59.00;100987.94;5002294;28;20033;-65
2023/12/06 04:47:33;;;;;;;29.30;14.88;;;;;;;-2.10;58.84;100986.22;5009259;28;20048;-64
2023/12/06 04:49:59;;;;;;;30.30;14.00;;;;;;;-2.07;58.98;100986.28;5002093;28;20052;-64
2023/12/06 04:52:25;;;;;;;38.88;15.27;;;;;;;-2.12;58.72;100977.66;5010406;28;20030;-64
2023/12/06 04:54:51;;;;;;;27.75;14.57;;;;;;;-2.13;59.21;100987.88;5005900;28;20411;-65
2023/12/06 04:57:17;;;;;;;34.63;15.65;;;;;;;-2.11;59.21;100986.19;5002558;28;20400;-65
2023/12/06 04:59:43;;;;;;;29.45;14.15;;;;;;;-2.05;59.13;100983.72;5008924;28;20053;-65
2023/12/06 05:02:09;;;;;;;27.58;14.63;;;;;;;-2.04;59.03;100986.31;5002614;28;20041;-64
2023/12/06 05:04:34;;;;;;;33.75;16.50;;;;;;;-2.09;59.23;100992.19;5008957;28;20041;-64
2023/12/06 05:07:00;;;;;;;29.98;13.75;;;;;;;-2.07;59.18;100988.84;5003113;28;20051;-65
2023/12/06 05:09:25;;;;;;;33.28;15.48;;;;;;;-2.08;58.99;100991.38;5008529;28;20156;-64
2023/12/06 05:11:51;;;;;;;30.33;16.10;;;;;;;-2.13;59.28;100996.41;5022804;28;20034;-64
2023/12/06 05:14:17;;;;;;;38.72;16.58;;;;;;;-2.11;59.23;100996.41;5004975;28;20613;-64
2023/12/06 05:16:43;;;;;;;31.15;14.32;;;;;;;-2.10;59.54;100988.78;4980260;28;20106;-65
2023/12/06 05:19:08;;;;;;;36.38;15.65;;;;;;;-2.12;59.47;100997.28;5000269;28;20228;-66
2023/12/06 05:21:33;;;;;;;32.92;15.70;;;;;;;-2.06;59.24;101003.34;5008840;28;20037;-64
2023/12/06 05:23:59;;;;;;;31.30;14.68;;;;;;;-2.11;59.35;101006.66;5002912;28;20049;-65
2023/12/06 05:26:26;;;;;;;31.55;14.32;;;;;;;-2.08;59.49;101005.03;5009451;28;20083;-65
2023/12/06 05:28:52;;;;;;;30.10;15.10;;;;;;;-2.02;59.30;101011.94;5004688;28;20104;-64
2023/12/06 05:31:18;;;;;;;32.15;14.55;;;;;;;-1.97;59.16;101002.63;5006851;28;21009;-65
2023/12/06 05:33:43;;;;;;;33.75;13.98;;;;;;;-1.98;59.10;101006.00;5007246;28;20033;-66
2023/12/06 05:36:09;;;;;;;33.17;16.85;;;;;;;-1.99;59.15;101011.97;5003297;28;20148;-65
2023/12/06 05:38:35;;;;;;;32.70;14.27;;;;;;;-1.96;59.30;101014.56;5007995;28;20086;-67
2023/12/06 05:41:00;;;;;;;30.77;15.63;;;;;;;-1.90;59.29;101009.53;5004140;28;20049;-65
2023/12/06 05:43:26;;;;;;;31.15;14.27;;;;;;;-1.91;59.17;101010.41;5006556;28;20065;-66
2023/12/06 05:45:52;;;;;;;32.72;14.60;;;;;;;-1.91;59.32;101005.28;5006388;28;20048;-67
2023/12/06 05:48:17;;;;;;;37.88;16.08;;;;;;;-1.91;59.43;101012.97;5001918;28;20079;-67
2023/12/06 05:50:43;;;;;;;28.98;12.68;;;;;;;-1.95;59.12;101016.31;5008095;28;20771;-64
2023/12/06 05:53:09;;;;;;;29.85;14.52;;;;;;;-1.87;59.20;101018.97;5001956;28;20037;-67
2023/12/06 05:55:34;;;;;;;31.05;13.45;;;;;;;-1.92;59.19;101015.50;5006191;28;20080;-66
2023/12/06 05:58:00;;;;;;;28.75;14.23;;;;;;;-2.01;59.66;101022.19;5001906;28;20794;-66
2023/12/06 06:00:25;;;;;;;30.52;13.88;;;;;;;-1.91;59.52;101022.31;5006851;28;20029;-67
2023/12/06 06:02:52;;;;;;;24.63;11.88;;;;;;;-1.93;59.35;101018.88;5008178;28;20491;-67
2023/12/06 06:05:18;;;;;;;22.80;11.15;;;;;;;-1.89;59.34;101018.97;5007485;28;20044;-65
2023/12/06 06:07:44;;;;;;;26.85;12.32;;;;;;;-1.89;59.68;101018.09;5007979;28;20443;-66
2023/12/06 06:10:10;;;;;;;23.85;11.73;;;;;;;-1.81;59.13;101019.91;5000475;28;20052;-64
2023/12/06 06:12:35;;;;;;;27.33;12.00;;;;;;;-1.83;59.43;101020.72;5007327;28;20040;-67
2023/12/06 06:15:02;;;;;;;25.95;13.18;;;;;;;-1.78;59.35;101028.47;5000925;28;20038;-66
2023/12/06 06:17:27;;;;;;;21.83;11.63;;;;;;;-1.85;59.56;101032.66;5008633;28;20037;-67
2023/12/06 06:19:53;;;;;;;28.80;12.27;;;;;;;-1.91;59.61;101028.34;5005533;28;20052;-67
2023/12/06 06:22:19;;;;;;;22.35;11.27;;;;;;;-1.86;59.44;101029.25;5003486;28;20029;-67
2023/12/06 06:24:44;;;;;;;25.60;11.38;;;;;;;-1.87;59.61;101031.78;5008240;28;20132;-66
2023/12/06 06:27:10;;;;;;;22.48;10.63;;;;;;;-1.87;59.58;101032.63;5000862;28;20037;-67
2023/12/06 06:29:37;;;;;;;23.95;10.55;;;;;;;-1.87;59.38;101029.22;5008776;28;20438;-67
2023/12/06 06:32:03;;;;;;;21.27;9.48;;;;;;;-1.87;59.22;101032.63;5015166;28;20101;-66
2023/12/06 06:34:29;;;;;;;24.30;10.93;;;;;;;-1.91;59.79;101037.69;5004917;28;20045;-65
2023/12/06 06:36:54;;;;;;;23.90;11.23;;;;;;;-1.84;59.72;101040.38;5008074;28;20714;-66
2023/12/06 06:39:20;;;;;;;20.92;9.60;;;;;;;-1.87;59.61;101045.44;5001322;28;20080;-65
2023/12/06 06:41:46;;;;;;;19.45;11.45;;;;;;;-1.91;59.45;101048.81;5006456;28;20661;-65
2023/12/06 06:44:12;;;;;;;21.77;10.00;;;;;;;-1.82;59.43;101043.81;5001070;28;20488;-65
2023/12/06 06:46:37;;;;;;;18.45;9.85;;;;;;;-1.85;59.46;101043.75;5008170;28;20034;-65
2023/12/06 06:49:03;;;;;;;19.25;9.15;;;;;;;-1.86;59.90;101047.19;5000850;28;20072;-64
2023/12/06 06:51:32;;;;;;;23.73;11.55;;;;;;;-1.89;59.75;101051.38;5009172;28;20037;-64
2023/12/06 06:53:58;;;;;;;22.20;9.75;;;;;;;-1.94;59.91;101048.75;5010954;28;20103;-64
2023/12/06 06:56:23;;;;;;;19.95;10.48;;;;;;;-2.03;59.89;101054.59;5003055;28;20041;-64
2023/12/06 06:58:49;;;;;;;22.45;9.88;;;;;;;-1.98;60.30;101052.13;5007889;28;20045;-65
2023/12/06 07:01:14;;;;;;;22.58;9.98;;;;;;;-2.01;60.40;101047.81;5001576;28;20033;-65
2023/12/06 07:03:40;;;;;;;20.92;10.65;;;;;;;-1.89;60.17;101056.50;5007061;28;20037;-65
2023/12/06 07:06:06;;;;;;;23.60;11.30;;;;;;;-1.87;59.73;101053.13;4998392;28;20026;-65
2023/12/06 07:08:32;;;;;;;22.83;11.35;;;;;;;-1.81;59.93;101055.78;5007247;28;20047;-66
2023/12/06 07:10:57;;;;;;;19.77;10.00;;;;;;;-1.79;59.56;101053.25;5005875;28;20578;-66
2023/12/06 07:13:22;;;;;;;19.35;10.40;;;;;;;-1.86;59.72;101062.56;5001586;28;20057;-65
2023/12/06 07:15:48;;;;;;;14.93;8.82;;;;;;;-1.89;60.00;101066.75;5006671;28;20041;-65
2023/12/06 07:18:13;;;;;;;22.73;10.10;;;;;;;-1.80;59.68;101062.66;5001404;28;20107;-65
2023/12/06 07:20:39;;;;;;;20.30;9.52;;;;;;;-1.72;59.77;101069.56;5009046;28;20084;-66
2023/12/06 07:23:06;;;;;;;23.17;11.57;;;;;;;-1.84;59.55;101071.13;4999007;28;20072;-66
2023/12/06 07:25:32;;;;;;;19.13;9.48;;;;;;;-1.76;59.10;101078.06;5006455;28;20045;-66
2023/12/06 07:27:57;;;;;;;19.80;11.02;;;;;;;-1.82;59.62;101074.56;5005779;28;20056;-66
2023/12/06 07:30:23;;;;;;;20.25;10.43;;;;;;;-1.84;59.54;101081.38;5002645;28;20038;-66
2023/12/06 07:32:48;;;;;;;17.80;9.32;;;;;;;-1.83;59.84;101083.09;5004297;28;20029;-66
2023/12/06 07:35:14;;;;;;;15.60;9.20;;;;;;;-1.87;59.98;101091.56;5002329;28;20050;-65
2023/12/06 07:37:39;;;;;;;18.05;9.20;;;;;;;-1.94;60.13;101089.75;5005598;28;20133;-65
2023/12/06 07:40:09;;;;;;;19.98;8.98;;;;;;;-1.87;59.91;101085.59;5004272;28;20061;-66
2023/12/06 07:42:35;;;;;;;23.50;10.10;;;;;;;-1.88;60.35;101084.72;5013119;28;20056;-66
2023/12/06 07:45:00;;;;;;;19.27;8.38;;;;;;;-1.91;60.37;101089.81;5009860;28;20049;-66
2023/12/06 07:47:25;;;;;;;15.65;9.18;;;;;;;-1.76;59.94;101094.28;5004127;28;20795;-65
2023/12/06 07:49:51;;;;;;;16.48;9.00;;;;;;;-1.70;60.08;101103.78;5012150;28;20041;-66
2023/12/06 07:52:17;;;;;;;14.55;7.28;;;;;;;-1.77;59.85;101101.97;5005923;28;20028;-66
2023/12/06 07:54:43;;;;;;;18.80;9.48;;;;;;;-1.62;59.70;101107.28;5009685;28;20530;-66
2023/12/06 07:57:08;;;;;;;16.55;9.18;;;;;;;-1.62;59.72;101103.06;5003167;28;20048;-65
2023/12/06 07:59:34;;;;;;;17.90;9.52;;;;;;;-1.56;59.67;101112.50;5008874;28;20065;-65
2023/12/06 08:02:00;;;;;;;16.92;9.55;;;;;;;-1.59;59.95;101118.47;5008952;28;20033;-66
2023/12/06 08:04:25;;;;;;;19.20;9.05;;;;;;;-1.53;59.57;101112.56;4998782;28;20067;-66
2023/12/06 08:06:51;;;;;;;15.45;7.60;;;;;;;-1.45;59.82;101115.22;5010608;28;20076;-66
2023/12/06 08:09:17;;;;;;;19.13;9.07;;;;;;;-1.49;59.62;101111.75;4999609;28;20107;-66
2023/12/06 08:11:43;;;;;;;18.77;8.13;;;;;;;-1.41;59.47;101117.84;5008035;28;20045;-66
2023/12/06 08:14:08;;;;;;;15.68;8.23;;;;;;;-1.41;59.54;101122.13;5005330;28;20044;-66
2023/12/06 08:16:34;;;;;;;15.13;7.85;;;;;;;-1.42;59.18;101130.66;5010528;28;20033;-64
2023/12/06 08:19:00;;;;;;;16.80;7.80;;;;;;;-1.35;59.16;101129.03;5007823;28;20043;-65
2023/12/06 08:21:25;;;;;;;16.52;8.48;;;;;;;-1.39;59.54;101121.31;5006009;28;20037;-65
2023/12/06 08:23:51;;;;;;;14.80;6.82;;;;;;;-1.32;59.53;101136.78;5008772;28;20403;-65
2023/12/06 08:26:17;;;;;;;19.30;8.35;;;;;;;-1.33;59.52;101135.03;5004154;28;20060;-65
2023/12/06 08:28:42;;;;;;;17.50;8.73;;;;;;;-1.39;59.44;101128.13;5007627;28;20480;-66
2023/12/06 08:31:10;;;;;;;16.40;8.40;;;;;;;-1.36;59.63;101135.88;5009802;28;20045;-66
2023/12/06 08:33:36;;;;;;;15.25;7.60;;;;;;;-1.31;59.67;101133.34;4992044;28;20044;-65
2023/12/06 08:36:02;;;;;;;19.75;9.65;;;;;;;-1.31;59.49;101138.50;5006268;28;20580;-65
2023/12/06 08:38:28;;;;;;;15.40;9.00;;;;;;;-1.43;59.45;101139.19;5002295;28;20423;-65
2023/12/06 08:40:53;;;;;;;16.75;9.23;;;;;;;-1.28;59.57;101141.13;5006750;28;20120;-65
2023/12/06 08:43:19;;;;;;;16.58;9.23;;;;;;;-1.21;59.30;101148.91;5001441;28;20056;-66
2023/12/06 08:45:45;;;;;;;16.95;8.77;;;;;;;-1.24;59.27;101142.84;5006219;28;20053;-66
2023/12/06 08:48:11;;;;;;;24.55;11.27;;;;;;;-1.28;59.35;101144.53;5007704;28;20125;-65
2023/12/06 08:50:37;;;;;;;24.45;11.45;;;;;;;-1.24;59.27;101143.75;5004214;28;20073;-64
2023/12/06 08:53:03;;;;;;;23.40;11.50;;;;;;;-1.19;59.32;101147.22;5005415;28;20064;-67
2023/12/06 08:55:28;;;;;;;20.45;11.27;;;;;;;-1.11;59.35;101149.88;5000493;28;20037;-65
2023/12/06 08:57:54;;;;;;;18.92;10.98;;;;;;;-1.05;59.13;101155.13;5006063;28;20073;-65
2023/12/06 09:00:20;;;;;;;18.75;8.85;;;;;;;-1.05;59.36;101149.97;5003338;28;20072;-65
2023/12/06 09:02:45;;;;;;;21.13;10.63;;;;;;;-1.03;58.69;101152.56;5004621;28;20041;-65
2023/12/06 09:05:11;;;;;;;17.75;9.63;;;;;;;-1.01;58.90;101154.31;5007937;28;20452;-65
2023/12/06 09:07:37;;;;;;;19.77;9.30;;;;;;;-0.94;59.00;101160.38;5007125;28;20037;-65
2023/12/06 09:10:03;;;;;;;19.75;9.73;;;;;;;-0.92;58.66;101162.97;5007127;28;20507;-65
2023/12/06 09:12:30;;;;;;;20.77;9.32;;;;;;;-0.86;58.66;101161.34;4983880;28;20040;-65
2023/12/06 09:14:56;;;;;;;18.58;8.80;;;;;;;-0.84;58.83;101171.59;5007484;28;20033;-65
2023/12/06 09:17:21;;;;;;;16.63;8.75;;;;;;;-0.90;58.58;101161.28;5000566;28;20620;-65
2023/12/06 09:19:48;;;;;;;16.58;8.77;;;;;;;-0.93;58.68;101166.38;5006863;28;20037;-65
2023/12/06 09:22:15;;;;;;;23.88;14.07;;;;;;;-0.90;58.27;101169.00;5004118;28;20045;-64
2023/12/06 09:24:43;;;;;;;23.40;14.27;;;;;;;-0.88;58.38;101169.88;5022579;28;20131;-65
2023/12/06 09:27:08;;;;;;;24.40;15.07;;;;;;;-0.82;58.51;101175.06;4989049;28;20091;-64
2023/12/06 09:29:34;;;;;;;21.90;14.48;;;;;;;-0.73;58.65;101180.28;5001299;28;20087;-66
2023/12/06 09:31:59;;;;;;;23.55;13.10;;;;;;;-0.58;58.51;101177.06;5007096;28;20029;-66
2023/12/06 09:34:25;;;;;;;21.63;11.77;;;;;;;-0.53;58.59;101169.41;4996910;28;20053;-65
2023/12/06 09:36:50;;;;;;;17.70;10.38;;;;;;;-0.35;58.40;101178.19;5006711;28;20134;-65
2023/12/06 09:39:20;;;;;;;18.73;11.68;;;;;;;-0.30;57.98;101182.47;5000452;28;20049;-65
2023/12/06 09:41:46;;;;;;;19.33;11.40;;;;;;;-0.39;58.08;101180.69;4989374;28;20508;-65
2023/12/06 09:44:11;;;;;;;23.15;11.73;;;;;;;-0.33;57.41;101175.59;5002863;28;20708;-65
2023/12/06 09:46:37;;;;;;;19.67;10.13;;;;;;;-0.37;57.32;101179.88;4995495;28;20504;-65
2023/12/06 09:49:03;;;;;;;18.15;9.77;;;;;;;-0.36;57.54;101189.28;5006188;28;20045;-64
2023/12/06 09:51:28;;;;;;;19.27;10.77;;;;;;;-0.32;57.89;101177.34;4999573;28;20053;-64
2023/12/06 09:53:54;;;;;;;18.27;9.73;;;;;;;-0.22;57.81;101184.28;5004796;28;20041;-65
2023/12/06 09:56:20;;;;;;;20.05;10.82;;;;;;;-0.09;58.04;101179.25;5000574;28;20058;-64
2023/12/06 09:58:45;;;;;;;17.90;10.23;;;;;;;0.01;57.65;101175.91;5002744;28;20553;-65
2023/12/06 10:01:11;;;;;;;23.02;9.65;;;;;;;0.05;57.20;101186.25;5007527;28;20087;-64
2023/12/06 10:03:38;;;;;;;18.55;9.88;;;;;;;0.22;56.92;101188.94;5000033;28;20868;-65
2023/12/06 10:06:04;;;;;;;15.18;8.68;;;;;;;0.45;57.38;101188.25;5007482;28;20040;-65
2023/12/06 10:08:34;;;;;;;17.00;9.77;;;;;;;0.61;56.68;101184.97;5000761;28;20080;-65
2023/12/06 10:11:07;;;;;;;12.77;7.53;;;;;;;0.63;56.16;101190.94;5010701;28;20029;-65
2023/12/06 10:13:35;;;;;;;14.27;8.57;;;;;;;0.63;56.23;101188.38;5001759;28;20128;-65
2023/12/06 10:16:01;;;;;;;14.80;7.57;;;;;;;0.58;56.11;101190.06;5004625;28;20594;-65
2023/12/06 10:18:27;;;;;;;15.68;8.57;;;;;;;0.64;56.17;101189.25;5002776;28;20033;-64
2023/12/06 10:20:52;;;;;;;13.00;8.05;;;;;;;0.54;55.53;101188.31;5004006;28;21360;-65
2023/12/06 10:23:18;;;;;;;12.13;8.35;;;;;;;0.55;55.65;101192.63;5006474;28;20680;-65
2023/12/06 10:25:47;;;;;;;18.45;8.93;;;;;;;0.55;55.39;101192.63;5001447;28;20025;-65
2023/12/06 10:28:13;;;;;;;15.10;7.35;;;;;;;0.64;55.76;101195.25;5022555;28;20450;-65
2023/12/06 10:30:38;;;;;;;12.45;8.73;;;;;;;0.62;55.81;101191.81;5008920;28;20121;-65
2023/12/06 10:33:05;;;;;;;14.07;8.95;;;;;;;0.51;55.34;101188.31;5004653;28;20091;-65
2023/12/06 10:35:33;;;;;;;13.93;8.20;;;;;;;0.57;55.04;101192.63;5001318;28;20738;-66
2023/12/06 10:37:59;;;;;;;15.48;8.73;;;;;;;0.64;55.90;101186.69;5005515;28;20045;-67
2023/12/06 10:40:26;;;;;;;13.98;8.25;;;;;;;0.66;55.48;101193.56;5003962;28;20488;-65
2023/12/06 10:42:59;;;;;;;12.88;7.63;;;;;;;0.79;55.95;101188.47;4995819;28;20490;-67
2023/12/06 10:45:25;;;;;;;16.67;8.63;;;;;;;0.76;54.97;101178.16;5002008;28;20032;-67
2023/12/06 10:47:52;;;;;;;13.02;7.75;;;;;;;0.73;55.08;101183.31;5006623;28;20029;-66
2023/12/06 10:50:19;;;;;;;17.95;9.10;;;;;;;0.72;54.52;101181.56;5008288;28;20056;-67
2023/12/06 10:52:46;;;;;;;13.43;8.48;;;;;;;0.56;54.76;101181.47;5002597;28;20045;-64
2023/12/06 10:55:13;;;;;;;16.48;8.13;;;;;;;0.46;54.85;101188.28;5009120;28;20499;-66
2023/12/06 10:57:40;;;;;;;15.63;8.30;;;;;;;0.51;55.61;101192.59;5000613;28;22034;-66
2023/12/06 11:00:07;;;;;;;20.85;9.50;;;;;;;0.50;55.20;101202.00;5012332;28;20033;-66
2023/12/06 11:02:33;;;;;;;16.75;8.52;;;;;;;0.62;55.54;101185.81;5004450;28;20041;-66
2023/12/06 11:05:05;;;;;;;19.05;9.18;;;;;;;0.75;55.81;101186.72;5013076;28;20029;-65